createdAt,value
2018-08-25T00:02:16.382Z,12.30
2018-08-25T00:04:44.931Z,14.30
2018-08-25T00:07:13.755Z,13.57
2018-08-25T00:09:42.544Z,11.40
2018-08-25T00:12:11.051Z,12.33
2018-08-25T00:14:39.807Z,13.50
2018-08-25T00:17:08.651Z,14.10
2018-08-25T00:19:37.274Z,15.47
2018-08-25T00:22:05.299Z,14.07
2018-08-25T00:24:33.176Z,14.43
2018-08-25T00:27:01.038Z,13.93
2018-08-25T00:29:28.860Z,14.37
2018-08-25T00:31:56.914Z,14.23
2018-08-25T00:34:24.812Z,15.20
2018-08-25T00:36:52.681Z,14.07
2018-08-25T00:39:21.160Z,13.60
2018-08-25T00:41:49.703Z,13.90
2018-08-25T00:44:18.595Z,12.00
2018-08-25T00:46:47.545Z,10.67
2018-08-25T00:49:16.311Z,9.27
2018-08-25T00:51:44.871Z,9.03
2018-08-25T00:54:13.398Z,8.00
2018-08-25T00:56:43.003Z,5.90
2018-08-25T00:59:12.034Z,5.00
2018-08-25T01:01:41.551Z,5.20
2018-08-25T01:04:11.517Z,5.30
2018-08-25T01:06:41.086Z,4.30
2018-08-25T01:09:11.074Z,4.87
2018-08-25T01:11:40.714Z,4.60
2018-08-25T01:14:10.758Z,4.10
2018-08-25T01:16:40.066Z,3.87
2018-08-25T01:19:09.410Z,4.20
2018-08-25T01:21:37.691Z,4.60
2018-08-25T01:24:05.853Z,4.20
2018-08-25T01:26:34.539Z,4.63
2018-08-25T01:29:02.495Z,4.40
2018-08-25T01:31:30.298Z,5.00
2018-08-25T01:33:59.782Z,5.40
2018-08-25T01:36:27.722Z,5.30
2018-08-25T01:38:55.656Z,4.83
2018-08-25T01:41:23.710Z,5.77
2018-08-25T01:43:51.788Z,5.53
2018-08-25T01:46:20.262Z,5.87
2018-08-25T01:48:48.867Z,5.33
2018-08-25T01:51:17.465Z,4.67
2018-08-25T01:53:45.940Z,6.03
2018-08-25T01:56:14.156Z,5.90
2018-08-25T01:58:42.487Z,6.17
2018-08-25T02:01:11.035Z,7.00
2018-08-25T02:03:40.007Z,7.27
2018-08-25T02:06:08.870Z,7.67
2018-08-25T02:08:36.821Z,7.37
2018-08-25T02:11:04.877Z,7.20
2018-08-25T02:13:32.735Z,7.03
2018-08-25T02:16:00.644Z,7.27
2018-08-25T02:18:28.884Z,7.90
2018-08-25T02:20:56.627Z,7.90
2018-08-25T02:23:24.553Z,7.70
2018-08-25T02:25:52.333Z,7.47
2018-08-25T02:28:20.538Z,8.03
2018-08-25T02:30:48.783Z,7.93
2018-08-25T02:33:17.208Z,7.10
2018-08-25T02:35:45.241Z,7.27
2018-08-25T02:38:13.644Z,7.77
2018-08-25T02:40:42.137Z,7.97
2018-08-25T02:43:10.733Z,7.93
2018-08-25T02:45:39.310Z,7.40
2018-08-25T02:48:07.562Z,7.73
2018-08-25T02:50:35.464Z,8.30
2018-08-25T02:53:03.295Z,8.63
2018-08-25T02:55:31.186Z,8.80
2018-08-25T02:57:59.076Z,8.07
2018-08-25T03:00:26.895Z,8.53
2018-08-25T03:02:54.832Z,8.43
2018-08-25T03:05:22.737Z,8.03
2018-08-25T03:07:50.809Z,8.73
2018-08-25T03:10:19.042Z,9.30
2018-08-25T03:12:47.422Z,8.60
2018-08-25T03:15:15.715Z,9.27
2018-08-25T03:17:44.194Z,9.57
2018-08-25T03:20:12.818Z,8.50
2018-08-25T03:22:42.031Z,8.77
2018-08-25T03:25:10.440Z,7.97
2018-08-25T03:27:39.910Z,7.53
2018-08-25T03:30:08.876Z,7.60
2018-08-25T03:32:37.065Z,8.40
2018-08-25T03:35:04.913Z,8.70
2018-08-25T03:37:32.786Z,8.10
2018-08-25T03:40:00.533Z,8.67
2018-08-25T03:42:28.435Z,9.50
2018-08-25T03:44:56.336Z,8.13
2018-08-25T03:47:24.353Z,8.53
2018-08-25T03:49:52.244Z,8.37
2018-08-25T03:52:20.499Z,9.13
2018-08-25T03:54:49.176Z,8.67
2018-08-25T03:57:17.592Z,8.03
2018-08-25T03:59:45.952Z,8.37
2018-08-25T04:02:14.320Z,8.77
2018-08-25T04:04:43.318Z,8.80
2018-08-25T04:07:12.286Z,8.50
2018-08-25T04:09:41.380Z,8.20
2018-08-25T04:12:10.282Z,8.57
2018-08-25T04:14:39.293Z,8.33
2018-08-25T04:17:08.054Z,8.43
2018-08-25T04:19:36.092Z,8.77
2018-08-25T04:22:04.061Z,9.10
2018-08-25T04:24:31.893Z,8.80
2018-08-25T04:26:59.855Z,8.67
2018-08-25T04:29:27.806Z,8.80
2018-08-25T04:31:55.743Z,9.17
2018-08-25T04:34:23.794Z,9.40
2018-08-25T04:36:51.861Z,9.10
2018-08-25T04:39:20.117Z,8.83
2018-08-25T04:41:48.340Z,8.17
2018-08-25T04:44:16.797Z,8.00
2018-08-25T04:46:45.681Z,8.50
2018-08-25T04:49:14.572Z,7.67
2018-08-25T04:51:43.591Z,8.53
2018-08-25T04:54:12.828Z,8.47
2018-08-25T04:56:42.156Z,7.73
2018-08-25T04:59:11.700Z,8.60
2018-08-25T05:01:40.655Z,9.03
2018-08-25T05:04:10.103Z,8.70
2018-08-25T05:06:38.956Z,8.53
2018-08-25T05:09:09.467Z,8.80
2018-08-25T05:11:38.545Z,9.07
2018-08-25T05:14:07.335Z,9.40
2018-08-25T05:16:35.518Z,9.53
2018-08-25T05:19:03.354Z,10.00
2018-08-25T05:21:31.342Z,9.07
2018-08-25T05:23:59.321Z,8.63
2018-08-25T05:26:27.174Z,8.33
2018-08-25T05:28:55.089Z,7.93
2018-08-25T05:31:22.953Z,7.93
2018-08-25T05:33:51.028Z,7.87
2018-08-25T05:36:19.454Z,7.90
2018-08-25T05:38:48.003Z,7.80
2018-08-25T05:41:16.619Z,7.73
2018-08-25T05:43:45.102Z,7.33
2018-08-25T05:46:13.712Z,8.40
2018-08-25T05:48:42.539Z,7.63
2018-08-25T05:51:12.224Z,7.90
2018-08-25T05:53:40.885Z,7.40
2018-08-25T05:56:10.866Z,8.17
2018-08-25T05:58:40.141Z,8.13
2018-08-25T06:01:10.709Z,7.90
2018-08-25T06:03:40.749Z,7.17
2018-08-25T06:06:09.933Z,6.67
2018-08-25T06:08:39.033Z,8.27
2018-08-25T06:11:07.795Z,6.90
2018-08-25T06:13:36.168Z,7.40
2018-08-25T06:16:04.258Z,7.30
2018-08-25T06:18:32.079Z,7.23
2018-08-25T06:21:00.072Z,7.57
2018-08-25T06:23:28.040Z,7.60
2018-08-25T06:25:56.078Z,7.57
2018-08-25T06:28:24.289Z,7.97
2018-08-25T06:30:52.186Z,7.30
2018-08-25T06:33:20.336Z,7.50
2018-08-25T06:35:48.704Z,8.77
2018-08-25T06:38:17.253Z,7.60
2018-08-25T06:40:45.661Z,7.90
2018-08-25T06:43:14.349Z,7.70
2018-08-25T06:45:43.716Z,7.57
2018-08-25T06:48:11.851Z,7.67
2018-08-25T06:50:40.875Z,7.97
2018-08-25T06:53:09.915Z,7.67
2018-08-25T06:55:39.254Z,7.47
2018-08-25T06:58:07.755Z,8.00
2018-08-25T07:00:35.805Z,7.80
2018-08-25T07:03:04.103Z,7.50
2018-08-25T07:05:32.189Z,7.57
2018-08-25T07:08:00.241Z,7.70
2018-08-25T07:10:28.466Z,7.77
2018-08-25T07:12:56.691Z,7.33
2018-08-25T07:15:24.679Z,7.77
2018-08-25T07:17:52.652Z,7.30
2018-08-25T07:20:20.600Z,7.27
2018-08-25T07:22:48.515Z,7.57
2018-08-25T07:25:16.496Z,7.33
2018-08-25T07:27:44.697Z,7.00
2018-08-25T07:30:12.886Z,6.93
2018-08-25T07:32:42.046Z,7.03
2018-08-25T07:35:11.629Z,6.43
2018-08-25T07:37:41.518Z,6.50
2018-08-25T07:40:11.459Z,5.80
2018-08-25T07:42:41.493Z,5.33
2018-08-25T07:45:11.266Z,6.13
2018-08-25T07:47:40.570Z,5.20
2018-08-25T07:50:10.724Z,5.00
2018-08-25T07:52:41.074Z,4.57
2018-08-25T07:55:10.781Z,4.23
2018-08-25T07:57:40.593Z,3.87
2018-08-25T08:00:10.924Z,3.50
2018-08-25T08:02:41.014Z,3.87
2018-08-25T08:05:10.852Z,3.90
2018-08-25T08:07:41.675Z,3.90
2018-08-25T08:10:11.862Z,3.77
2018-08-25T08:12:41.252Z,4.03
2018-08-25T08:15:10.817Z,3.40
2018-08-25T08:17:40.447Z,3.73
2018-08-25T08:20:13.706Z,3.53
2018-08-25T08:22:42.451Z,3.50
2018-08-25T08:25:11.236Z,3.13
2018-08-25T08:27:40.643Z,3.50
2018-08-25T08:30:10.419Z,3.17
2018-08-25T08:32:40.074Z,2.90
2018-08-25T08:35:09.561Z,2.90
2018-08-25T08:37:39.247Z,3.23
2018-08-25T08:40:08.510Z,3.30
2018-08-25T08:42:39.008Z,3.27
2018-08-25T08:45:10.105Z,3.20
2018-08-25T08:47:40.425Z,3.40
2018-08-25T08:50:10.691Z,2.97
2018-08-25T08:52:40.331Z,3.10
2018-08-25T08:55:11.067Z,2.30
2018-08-25T08:57:40.657Z,2.20
2018-08-25T09:00:10.700Z,2.10
2018-08-25T09:02:40.272Z,2.43
2018-08-25T09:05:11.062Z,2.20
2018-08-25T09:07:40.771Z,1.90
2018-08-25T09:10:10.739Z,2.17
2018-08-25T09:12:41.398Z,2.10
2018-08-25T09:15:10.525Z,2.20
2018-08-25T09:17:40.703Z,1.90
2018-08-25T09:20:09.996Z,2.10
2018-08-25T09:22:40.231Z,2.47
2018-08-25T09:25:10.590Z,2.60
2018-08-25T09:27:40.483Z,2.80
2018-08-25T09:30:11.812Z,2.27
2018-08-25T09:32:41.164Z,2.50
2018-08-25T09:35:10.395Z,2.00
2018-08-25T09:37:40.422Z,2.10
2018-08-25T09:40:09.868Z,2.10
2018-08-25T09:42:39.345Z,2.27
2018-08-25T09:45:08.394Z,2.13
2018-08-25T09:47:37.407Z,2.50
2018-08-25T09:50:06.069Z,2.33
2018-08-25T09:52:34.291Z,2.27
2018-08-25T09:55:02.343Z,2.23
2018-08-25T09:57:30.661Z,2.00
2018-08-25T09:59:58.548Z,2.20
2018-08-25T10:02:26.491Z,2.20
2018-08-25T10:04:54.410Z,3.00
2018-08-25T10:07:22.290Z,2.37
2018-08-25T10:09:50.309Z,2.20
2018-08-25T10:12:18.404Z,2.00
2018-08-25T10:14:46.317Z,2.10
2018-08-25T10:17:14.456Z,2.03
2018-08-25T10:19:42.805Z,2.00
2018-08-25T10:22:11.786Z,2.37
2018-08-25T10:24:41.260Z,2.40
2018-08-25T10:27:11.899Z,2.43
2018-08-25T10:29:41.797Z,2.27
2018-08-25T10:32:11.537Z,2.30
2018-08-25T10:34:41.589Z,2.20
2018-08-25T10:37:10.612Z,2.20
2018-08-25T10:39:41.091Z,2.13
2018-08-25T10:42:11.084Z,2.03
2018-08-25T10:44:40.673Z,2.00
2018-08-25T10:47:10.650Z,2.10
2018-08-25T10:49:41.235Z,1.43
2018-08-25T10:52:11.760Z,2.43
2018-08-25T10:54:41.637Z,2.07
2018-08-25T10:57:11.699Z,2.20
2018-08-25T10:59:40.975Z,1.90
2018-08-25T11:02:21.670Z,2.23
2018-08-25T11:04:50.042Z,1.83
2018-08-25T11:07:18.517Z,2.23
2018-08-25T11:09:46.751Z,1.70
2018-08-25T11:12:15.244Z,2.17
2018-08-25T11:14:44.250Z,2.00
2018-08-25T11:17:13.471Z,2.30
2018-08-25T11:19:43.361Z,2.00
2018-08-25T11:22:12.866Z,2.07
2018-08-25T11:24:42.567Z,2.13
2018-08-25T11:27:12.059Z,2.20
2018-08-25T11:29:41.374Z,2.10
2018-08-25T11:32:11.015Z,2.10
2018-08-25T11:34:41.034Z,2.23
2018-08-25T11:37:10.658Z,2.00
2018-08-25T11:39:41.266Z,2.40
2018-08-25T11:42:10.829Z,2.17
2018-08-25T11:44:41.595Z,2.33
2018-08-25T11:47:15.128Z,2.13
2018-08-25T11:49:44.598Z,2.13
2018-08-25T11:52:13.336Z,2.10
2018-08-25T11:54:43.046Z,2.13
2018-08-25T11:57:12.886Z,2.20
2018-08-25T11:59:42.339Z,2.00
2018-08-25T12:02:11.949Z,2.10
2018-08-25T12:04:42.522Z,2.60
2018-08-25T12:07:12.393Z,2.30
2018-08-25T12:09:41.246Z,2.00
2018-08-25T12:12:09.829Z,2.23
2018-08-25T12:14:38.231Z,2.17
2018-08-25T12:17:06.690Z,2.10
2018-08-25T12:19:34.760Z,2.70
2018-08-25T12:22:02.931Z,2.30
2018-08-25T12:24:31.126Z,2.00
2018-08-25T12:27:00.893Z,2.00
2018-08-25T12:29:28.918Z,2.23
2018-08-25T12:31:57.178Z,2.00
2018-08-25T12:34:25.175Z,2.00
2018-08-25T12:36:53.157Z,1.93
2018-08-25T12:39:21.343Z,1.83
2018-08-25T12:41:49.601Z,2.10
2018-08-25T12:44:18.095Z,1.90
2018-08-25T12:46:46.202Z,2.07
2018-08-25T12:49:14.789Z,2.20
2018-08-25T12:51:43.570Z,1.80
2018-08-25T12:54:12.442Z,2.07
2018-08-25T12:56:40.805Z,1.80
2018-08-25T12:59:09.176Z,1.87
2018-08-25T13:01:37.343Z,1.67
2018-08-25T13:04:05.462Z,2.10
2018-08-25T13:06:33.527Z,1.90
2018-08-25T13:09:02.441Z,1.80
2018-08-25T13:11:30.438Z,1.67
2018-08-25T13:13:58.379Z,1.80
2018-08-25T13:16:26.267Z,2.00
2018-08-25T13:18:54.270Z,1.90
2018-08-25T13:21:22.280Z,2.80
2018-08-25T13:23:50.413Z,2.17
2018-08-25T13:26:18.878Z,2.40
2018-08-25T13:28:47.099Z,2.60
2018-08-25T13:31:15.818Z,2.23
2018-08-25T13:33:44.803Z,2.57
2018-08-25T13:36:13.526Z,2.33
2018-08-25T13:38:42.619Z,2.20
2018-08-25T13:41:11.655Z,2.20
2018-08-25T13:43:42.076Z,2.87
2018-08-25T13:46:16.186Z,2.33
2018-08-25T13:48:45.016Z,2.37
2018-08-25T13:51:14.133Z,2.30
2018-08-25T13:53:42.824Z,3.00
2018-08-25T13:56:11.699Z,2.40
2018-08-25T13:58:40.909Z,2.20
2018-08-25T14:01:11.711Z,2.00
2018-08-25T14:03:43.249Z,1.97
2018-08-25T14:06:12.760Z,2.40
2018-08-25T14:08:42.016Z,2.20
2018-08-25T14:11:12.156Z,1.77
2018-08-25T14:13:43.148Z,2.33
2018-08-25T14:16:14.168Z,1.87
2018-08-25T14:18:43.542Z,1.50
2018-08-25T14:21:13.891Z,2.13
2018-08-25T14:23:43.420Z,1.40
2018-08-25T14:26:14.796Z,1.50
2018-08-25T14:28:45.220Z,1.90
2018-08-25T14:31:13.667Z,0.90
2018-08-25T14:33:44.264Z,1.17
2018-08-25T14:36:14.212Z,1.10
2018-08-25T14:38:43.738Z,1.13
2018-08-25T14:41:13.154Z,1.60
2018-08-25T14:43:42.946Z,1.20
2018-08-25T14:46:13.603Z,1.13
2018-08-25T14:48:42.873Z,1.33
2018-08-25T14:51:12.667Z,1.57
2018-08-25T14:56:34.224Z,1.40
2018-08-25T14:59:02.252Z,1.20
2018-08-25T15:01:30.470Z,1.37
2018-08-25T15:03:59.688Z,1.57
2018-08-25T15:06:27.753Z,1.50
2018-08-25T15:08:56.859Z,1.20
2018-08-25T15:11:24.886Z,1.47
2018-08-25T15:13:53.024Z,1.20
2018-08-25T15:16:21.676Z,1.20
2018-08-25T15:18:49.783Z,1.37
2018-08-25T15:21:18.284Z,1.10
2018-08-25T15:23:47.240Z,1.50
2018-08-25T15:26:15.560Z,1.37
2018-08-25T15:28:44.026Z,1.30
2018-08-25T15:31:13.111Z,1.47
2018-08-25T15:33:41.629Z,1.33
2018-08-25T15:36:11.505Z,1.20
2018-08-25T15:38:40.964Z,1.33
2018-08-25T15:41:11.002Z,1.53
2018-08-25T15:43:40.802Z,1.77
2018-08-25T15:46:09.440Z,1.43
2018-08-25T15:48:38.743Z,1.20
2018-08-25T15:51:06.926Z,1.20
2018-08-25T15:53:37.675Z,1.17
2018-08-25T15:56:05.612Z,1.50
2018-08-25T15:58:33.446Z,1.10
2018-08-25T16:01:01.407Z,1.27
2018-08-25T16:03:29.543Z,1.20
2018-08-25T16:05:57.601Z,1.30
2018-08-25T16:08:25.558Z,1.10
2018-08-25T16:10:53.485Z,1.07
2018-08-25T16:13:21.617Z,1.30
2018-08-25T16:15:50.252Z,1.27
2018-08-25T16:18:19.139Z,1.00
2018-08-25T16:20:47.908Z,1.10
2018-08-25T16:23:16.224Z,1.07
2018-08-25T16:25:45.959Z,1.30
2018-08-25T16:28:14.716Z,1.17
2018-08-25T16:30:43.358Z,1.30
2018-08-25T16:33:12.287Z,1.67
2018-08-25T16:35:41.010Z,1.20
2018-08-25T16:38:10.630Z,1.43
2018-08-25T16:40:39.710Z,1.50
2018-08-25T16:43:08.255Z,1.33
2018-08-25T16:45:36.368Z,1.60
2018-08-25T16:48:05.205Z,9.33
2018-08-25T16:50:33.153Z,1.40
2018-08-25T16:53:00.970Z,1.27
2018-08-25T16:55:29.218Z,1.40
2018-08-25T16:57:57.383Z,1.70
2018-08-25T17:00:25.368Z,1.50
2018-08-25T17:02:53.340Z,2.57
2018-08-25T17:05:21.476Z,1.27
2018-08-25T17:07:49.501Z,1.40
2018-08-25T17:10:17.680Z,1.60
2018-08-25T17:12:46.341Z,1.60
2018-08-25T17:15:15.202Z,1.80
2018-08-25T17:17:44.182Z,1.33
2018-08-25T17:20:13.272Z,1.27
2018-08-25T17:22:42.334Z,1.20
2018-08-25T17:25:11.605Z,1.50
2018-08-25T17:27:42.110Z,1.30
2018-08-25T17:30:12.625Z,1.50
2018-08-25T17:32:42.770Z,1.67
2018-08-25T17:35:12.317Z,1.40
2018-08-25T17:37:42.487Z,1.27
2018-08-25T17:40:12.924Z,1.60
2018-08-25T17:42:42.029Z,1.50
2018-08-25T17:45:11.923Z,1.40
2018-08-25T17:47:42.018Z,1.60
2018-08-25T17:50:11.678Z,1.60
2018-08-25T17:52:43.162Z,1.60
2018-08-25T17:55:12.318Z,1.60
2018-08-25T17:57:42.462Z,1.30
2018-08-25T18:00:14.443Z,1.70
2018-08-25T18:02:44.484Z,1.60
2018-08-25T18:05:14.570Z,1.80
2018-08-25T18:07:44.311Z,1.80
2018-08-25T18:10:14.196Z,1.83
2018-08-25T18:12:42.846Z,1.90
2018-08-25T18:15:13.239Z,2.60
2018-08-25T18:17:41.748Z,2.40
2018-08-25T18:20:11.520Z,1.67
2018-08-25T18:22:41.462Z,1.83
2018-08-25T18:25:11.122Z,2.03
2018-08-25T18:27:42.307Z,2.17
2018-08-25T18:30:12.385Z,2.40
2018-08-25T18:32:41.563Z,3.13
2018-08-25T18:35:11.392Z,3.20
2018-08-25T18:37:41.872Z,2.20
2018-08-25T18:40:11.195Z,3.10
2018-08-25T18:42:40.723Z,2.57
2018-08-25T18:45:11.380Z,2.20
2018-08-25T18:47:40.609Z,2.70
2018-08-25T18:50:10.390Z,2.43
2018-08-25T18:52:40.196Z,2.43
2018-08-25T18:55:10.996Z,2.40
2018-08-25T18:57:40.209Z,2.37
2018-08-25T19:00:10.978Z,2.43
2018-08-25T19:02:41.002Z,2.30
2018-08-25T19:05:10.194Z,2.43
2018-08-25T19:07:38.681Z,2.23
2018-08-25T19:10:07.994Z,2.30
2018-08-25T19:12:36.212Z,2.67
2018-08-25T19:15:04.322Z,2.73
2018-08-25T19:17:32.440Z,2.57
2018-08-25T19:20:00.436Z,3.30
2018-08-25T19:22:28.409Z,3.13
2018-08-25T19:24:56.323Z,2.63
2018-08-25T19:27:24.426Z,3.20
2018-08-25T19:29:52.427Z,3.17
2018-08-25T19:32:20.228Z,3.13
2018-08-25T19:34:48.266Z,3.20
2018-08-25T19:37:16.420Z,3.67
2018-08-25T19:39:44.792Z,3.47
2018-08-25T19:42:12.862Z,3.60
2018-08-25T19:44:42.907Z,3.10
2018-08-25T19:47:12.187Z,3.77
2018-08-25T19:49:41.359Z,3.27
2018-08-25T19:52:10.196Z,3.60
2018-08-25T19:54:39.951Z,3.20
2018-08-25T19:57:10.023Z,3.40
2018-08-25T19:59:39.378Z,3.23
2018-08-25T20:02:08.982Z,2.80
2018-08-25T20:04:37.975Z,3.13
2018-08-25T20:07:09.894Z,3.10
2018-08-25T20:09:41.524Z,3.13
2018-08-25T20:12:11.699Z,3.40
2018-08-25T20:14:42.144Z,3.50
2018-08-25T20:17:11.869Z,3.30
2018-08-25T20:19:41.120Z,3.00
2018-08-25T20:22:11.449Z,3.07
2018-08-25T20:24:41.593Z,2.90
2018-08-25T20:27:12.111Z,2.90
2018-08-25T20:29:41.213Z,3.00
2018-08-25T20:32:11.028Z,2.93
2018-08-25T20:34:41.327Z,3.07
2018-08-25T20:37:10.656Z,3.27
2018-08-25T20:39:40.593Z,3.43
2018-08-25T20:42:11.429Z,3.40
2018-08-25T20:44:41.233Z,3.33
2018-08-25T20:47:12.992Z,3.40
2018-08-25T20:49:41.866Z,3.00
2018-08-25T20:52:12.275Z,3.37
2018-08-25T20:54:42.471Z,3.50
2018-08-25T20:57:11.413Z,3.30
2018-08-25T20:59:41.728Z,3.40
2018-08-25T21:02:11.970Z,3.20
2018-08-25T21:04:42.109Z,3.10
2018-08-25T21:07:11.134Z,2.80
2018-08-25T21:09:41.529Z,2.80
2018-08-25T21:12:12.136Z,2.70
2018-08-25T21:14:41.748Z,2.87
2018-08-25T21:17:11.824Z,2.60
2018-08-25T21:19:41.507Z,2.77
2018-08-25T21:22:12.128Z,2.50
2018-08-25T21:24:41.933Z,2.40
2018-08-25T21:27:11.758Z,2.23
2018-08-25T21:29:42.319Z,2.40
2018-08-25T21:32:12.050Z,2.63
2018-08-25T21:34:41.606Z,2.83
2018-08-25T21:37:12.523Z,2.40
2018-08-25T21:39:42.192Z,2.53
2018-08-25T21:42:11.791Z,2.60
2018-08-25T21:44:40.721Z,2.37
2018-08-25T21:47:12.255Z,2.50
2018-08-25T21:49:41.808Z,2.83
2018-08-25T21:52:11.762Z,2.53
2018-08-25T21:54:41.618Z,2.60
2018-08-25T21:57:11.959Z,2.47
2018-08-25T21:59:41.762Z,2.60
2018-08-25T22:02:15.908Z,4.60
2018-08-25T22:04:44.228Z,2.20
2018-08-25T22:07:13.882Z,2.40
2018-08-25T22:09:42.597Z,2.60
2018-08-25T22:12:12.092Z,2.33
2018-08-25T22:14:41.477Z,2.50
2018-08-25T22:17:11.168Z,2.30
2018-08-25T22:19:41.380Z,2.40
2018-08-25T22:22:11.502Z,2.33
2018-08-25T22:24:41.114Z,2.23
2018-08-25T22:27:10.990Z,2.53
2018-08-25T22:29:41.099Z,2.57
2018-08-25T22:32:11.620Z,2.37
2018-08-25T22:34:41.252Z,2.17
2018-08-25T22:37:11.337Z,2.40
2018-08-25T22:39:42.542Z,2.70
2018-08-25T22:42:11.795Z,2.40
2018-08-25T22:44:41.472Z,2.30
2018-08-25T22:47:11.436Z,2.20
2018-08-25T22:49:41.120Z,2.10
2018-08-25T22:52:11.348Z,2.20
2018-08-25T22:54:41.391Z,2.50
2018-08-25T22:57:13.927Z,2.40
2018-08-25T22:59:42.506Z,2.20
2018-08-25T23:02:11.833Z,2.23
2018-08-25T23:04:41.493Z,2.30
2018-08-25T23:07:11.725Z,2.10
2018-08-25T23:09:41.903Z,2.10
2018-08-25T23:12:13.549Z,2.10
2018-08-25T23:14:42.373Z,2.17
2018-08-25T23:17:11.828Z,2.30
2018-08-25T23:19:41.164Z,1.90
2018-08-25T23:22:10.979Z,1.87
2018-08-25T23:24:40.873Z,1.97
2018-08-25T23:27:10.078Z,2.47
2018-08-25T23:29:38.832Z,1.97
2018-08-25T23:32:06.950Z,2.00
2018-08-25T23:34:34.994Z,1.90
2018-08-25T23:37:02.910Z,2.10
2018-08-25T23:39:30.863Z,2.57
2018-08-25T23:41:58.898Z,2.00
2018-08-25T23:44:27.072Z,2.20
2018-08-25T23:46:55.044Z,2.00
2018-08-25T23:49:22.988Z,2.60
2018-08-25T23:51:50.956Z,2.53
2018-08-25T23:54:19.718Z,2.10
2018-08-25T23:56:48.358Z,2.20
2018-08-25T23:59:16.899Z,1.93
